createdAt,value
2022-08-17T00:01:52.099Z,21.02
2022-08-17T00:04:21.513Z,21.23
2022-08-17T00:06:50.324Z,19.70
2022-08-17T00:09:19.542Z,21.30
2022-08-17T00:12:40.798Z,23.02
2022-08-17T00:14:38.761Z,21.83
2022-08-17T00:17:07.013Z,20.98
2022-08-17T00:19:35.218Z,21.35
2022-08-17T00:22:32.279Z,24.95
2022-08-17T00:24:54.930Z,20.98
2022-08-17T00:27:24.485Z,21.33
2022-08-17T00:29:52.840Z,21.73
2022-08-17T00:33:11.941Z,22.10
2022-08-17T00:35:12.125Z,22.27
2022-08-17T00:37:40.560Z,20.60
2022-08-17T00:40:10.516Z,20.25
2022-08-17T00:42:40.522Z,20.48
2022-08-17T00:45:11.554Z,21.48
2022-08-17T00:47:40.225Z,21.60
2022-08-17T00:50:12.378Z,19.65
2022-08-17T00:52:46.886Z,19.90
2022-08-17T00:55:15.982Z,20.33
2022-08-17T00:57:54.640Z,19.38
2022-08-17T01:00:27.133Z,17.52
2022-08-17T01:03:00.303Z,19.88
2022-08-17T01:05:31.416Z,19.55
2022-08-17T01:08:01.378Z,20.52
2022-08-17T01:10:58.416Z,20.00
2022-08-17T01:13:27.712Z,19.00
2022-08-17T01:16:00.094Z,19.02
2022-08-17T01:18:29.132Z,19.40
2022-08-17T01:21:02.035Z,19.83
2022-08-17T01:23:31.831Z,19.80
2022-08-17T01:26:03.208Z,20.75
2022-08-17T01:28:54.169Z,20.25
2022-08-17T01:31:23.246Z,19.05
2022-08-17T01:33:51.401Z,20.00
2022-08-17T01:36:19.866Z,19.85
2022-08-17T01:38:49.377Z,19.75
2022-08-17T01:41:18.646Z,22.60
2022-08-17T01:43:51.062Z,20.33
2022-08-17T01:46:23.212Z,19.83
2022-08-17T01:48:51.656Z,19.05
2022-08-17T01:51:20.297Z,20.98
2022-08-17T01:53:53.527Z,20.02
2022-08-17T01:56:24.354Z,20.15
2022-08-17T01:58:53.728Z,19.85
2022-08-17T02:01:24.439Z,22.25
2022-08-17T02:03:59.351Z,20.73
2022-08-17T02:06:31.426Z,19.70
2022-08-17T02:09:16.789Z,21.13
2022-08-17T02:11:46.265Z,20.10
2022-08-17T02:14:15.457Z,19.17
2022-08-17T02:16:43.971Z,22.05
2022-08-17T02:19:14.127Z,20.02
2022-08-17T02:21:43.642Z,20.85
2022-08-17T02:24:17.962Z,18.58
2022-08-17T02:27:06.570Z,18.15
2022-08-17T02:29:34.995Z,19.50
2022-08-17T02:32:03.327Z,20.65
2022-08-17T02:34:32.346Z,16.98
2022-08-17T02:37:00.647Z,19.83
2022-08-17T02:39:30.532Z,21.23
2022-08-17T02:42:02.879Z,19.48
2022-08-17T02:44:39.045Z,19.08
2022-08-17T02:47:08.773Z,18.90
2022-08-17T02:49:37.377Z,18.55
2022-08-17T02:52:06.983Z,19.55
2022-08-17T02:54:41.416Z,20.45
2022-08-17T02:57:11.245Z,22.23
2022-08-17T02:59:39.483Z,20.27
2022-08-17T03:02:09.020Z,20.33
2022-08-17T03:04:37.610Z,22.52
2022-08-17T03:07:06.752Z,22.25
2022-08-17T03:09:36.678Z,19.67
2022-08-17T03:12:10.159Z,20.23
2022-08-17T03:14:41.420Z,19.08
2022-08-17T03:17:15.874Z,21.42
2022-08-17T03:19:45.897Z,20.42
2022-08-17T03:22:36.022Z,21.00
2022-08-17T03:25:05.151Z,20.30
2022-08-17T03:27:39.782Z,19.25
2022-08-17T03:30:13.418Z,19.95
2022-08-17T03:32:44.549Z,20.83
2022-08-17T03:35:14.679Z,21.67
2022-08-17T03:37:46.208Z,20.85
2022-08-17T03:40:17.229Z,21.63
2022-08-17T03:43:07.892Z,20.83
2022-08-17T03:45:53.859Z,21.25
2022-08-17T03:48:39.793Z,19.80
2022-08-17T03:51:25.814Z,19.77
2022-08-17T03:54:18.913Z,20.98
2022-08-17T03:56:59.070Z,21.75
2022-08-17T03:59:27.410Z,20.20
2022-08-17T04:01:58.389Z,22.58
2022-08-17T04:04:27.455Z,22.30
2022-08-17T04:06:56.542Z,21.42
2022-08-17T04:09:24.708Z,19.50
2022-08-17T04:11:54.516Z,21.13
2022-08-17T04:14:25.367Z,19.92
2022-08-17T04:16:53.540Z,21.65
2022-08-17T04:19:21.695Z,21.20
2022-08-17T04:21:49.995Z,23.40
2022-08-17T04:24:18.128Z,20.55
2022-08-17T04:26:53.802Z,20.48
2022-08-17T04:29:26.167Z,20.77
2022-08-17T04:32:14.315Z,21.48
2022-08-17T04:34:43.547Z,22.75
2022-08-17T04:37:12.033Z,21.98
2022-08-17T04:40:03.933Z,19.92
2022-08-17T04:42:32.402Z,20.73
2022-08-17T04:45:03.505Z,23.05
2022-08-17T04:47:32.056Z,20.40
2022-08-17T04:50:02.407Z,20.75
2022-08-17T04:52:42.831Z,22.10
2022-08-17T04:55:12.052Z,21.65
2022-08-17T04:57:44.587Z,21.77
2022-08-17T05:00:15.521Z,22.70
2022-08-17T05:02:50.132Z,20.90
2022-08-17T05:05:20.838Z,20.70
2022-08-17T05:07:49.267Z,18.90
2022-08-17T05:10:17.826Z,22.40
2022-08-17T05:12:46.075Z,24.50
2022-08-17T05:15:17.010Z,21.65
2022-08-17T05:17:48.563Z,21.90
2022-08-17T05:20:16.909Z,20.67
2022-08-17T05:22:51.272Z,22.45
2022-08-17T05:25:24.969Z,21.42
2022-08-17T05:27:54.785Z,23.92
2022-08-17T05:30:25.110Z,21.83
2022-08-17T05:32:55.432Z,24.40
2022-08-17T05:35:24.482Z,23.02
2022-08-17T05:37:53.264Z,24.42
2022-08-17T05:40:26.001Z,23.13
2022-08-17T05:43:04.056Z,25.58
2022-08-17T05:45:55.838Z,25.00
2022-08-17T05:48:22.330Z,23.98
2022-08-17T05:51:38.933Z,25.02
2022-08-17T05:54:18.867Z,22.77
2022-08-17T05:57:07.857Z,23.33
2022-08-17T05:59:49.391Z,25.00
2022-08-17T06:02:25.497Z,25.33
2022-08-17T06:05:09.249Z,26.45
2022-08-17T06:07:46.897Z,26.13
2022-08-17T06:10:24.101Z,27.15
2022-08-17T06:13:03.524Z,26.20
2022-08-17T06:15:37.654Z,26.25
2022-08-17T06:18:09.653Z,27.92
2022-08-17T06:20:50.110Z,27.58
2022-08-17T06:23:26.678Z,28.98
2022-08-17T06:26:03.860Z,27.40
2022-08-17T06:28:38.836Z,26.15
2022-08-17T06:31:14.057Z,29.23
2022-08-17T06:33:47.557Z,26.77
2022-08-17T06:36:30.310Z,26.20
2022-08-17T06:39:18.074Z,29.27
2022-08-17T06:41:56.510Z,30.15
2022-08-17T06:44:43.631Z,27.73
2022-08-17T06:47:28.411Z,30.17
2022-08-17T06:50:06.030Z,27.40
2022-08-17T06:52:46.841Z,25.88
2022-08-17T06:55:21.307Z,31.10
2022-08-17T06:58:15.849Z,28.63
2022-08-17T07:00:48.192Z,27.25
2022-08-17T07:03:27.518Z,26.90
2022-08-17T07:06:02.075Z,28.50
2022-08-17T07:08:39.378Z,28.88
2022-08-17T07:11:14.045Z,24.17
2022-08-17T07:13:51.447Z,26.02
2022-08-17T07:16:25.982Z,26.67
2022-08-17T07:18:55.618Z,26.52
2022-08-17T07:21:38.639Z,27.27
2022-08-17T07:24:29.572Z,29.05
2022-08-17T07:27:08.382Z,29.23
2022-08-17T07:29:41.357Z,25.38
2022-08-17T07:32:13.516Z,27.05
2022-08-17T07:35:07.481Z,25.05
2022-08-17T07:37:41.989Z,27.58
2022-08-17T07:40:26.546Z,27.42
2022-08-17T07:43:22.177Z,24.17
2022-08-17T07:46:25.109Z,25.48
2022-08-17T07:48:55.505Z,25.70
2022-08-17T07:51:28.089Z,27.15
2022-08-17T07:54:13.536Z,25.92
2022-08-17T07:56:46.301Z,26.27
2022-08-17T07:59:18.107Z,31.70
2022-08-17T08:02:18.409Z,25.95
2022-08-17T08:05:01.128Z,23.73
2022-08-17T08:07:38.300Z,27.13
2022-08-17T08:10:13.828Z,27.33
2022-08-17T08:12:44.265Z,31.25
2022-08-17T08:15:18.962Z,28.25
2022-08-17T08:17:52.735Z,31.95
2022-08-17T08:20:42.496Z,29.25
2022-08-17T08:23:21.314Z,29.95
2022-08-17T08:26:04.545Z,31.88
2022-08-17T08:28:44.432Z,28.00
2022-08-17T08:31:24.458Z,32.13
2022-08-17T08:34:02.842Z,32.83
2022-08-17T08:36:57.122Z,31.40
2022-08-17T08:39:42.825Z,31.30
2022-08-17T08:42:23.496Z,33.22
2022-08-17T08:45:04.540Z,29.25
2022-08-17T08:48:05.356Z,33.08
2022-08-17T08:50:44.119Z,32.83
2022-08-17T08:53:24.737Z,30.70
2022-08-17T08:55:57.105Z,32.67
2022-08-17T08:58:41.709Z,31.88
2022-08-17T09:01:18.681Z,34.65
2022-08-17T09:04:18.349Z,31.77
2022-08-17T09:06:59.658Z,36.95
2022-08-17T09:09:36.495Z,30.92
2022-08-17T09:12:10.726Z,35.40
2022-08-17T09:14:47.093Z,34.90
2022-08-17T09:17:19.317Z,33.08
2022-08-17T09:19:53.832Z,32.88
2022-08-17T09:22:31.776Z,32.53
2022-08-17T09:25:07.976Z,32.40
2022-08-17T09:27:47.602Z,35.55
2022-08-17T09:30:18.310Z,33.83
2022-08-17T09:32:50.002Z,32.40
2022-08-17T09:35:22.753Z,33.08
2022-08-17T09:38:00.124Z,34.50
2022-08-17T09:40:34.065Z,35.78
2022-08-17T09:43:09.295Z,31.73
2022-08-17T09:45:43.704Z,35.15
2022-08-17T09:48:22.467Z,36.13
2022-08-17T09:51:04.809Z,35.95
2022-08-17T09:53:36.813Z,33.75
2022-08-17T09:56:16.569Z,32.47
2022-08-17T09:59:01.865Z,34.45
2022-08-17T10:01:40.227Z,32.88
2022-08-17T10:04:33.153Z,36.00
2022-08-17T10:07:13.237Z,36.13
2022-08-17T10:09:55.831Z,41.08
2022-08-17T10:12:34.526Z,35.67
2022-08-17T10:15:18.875Z,32.95
2022-08-17T10:18:07.708Z,39.53
2022-08-17T10:20:44.900Z,35.03
2022-08-17T10:23:46.665Z,37.47
2022-08-17T10:26:22.384Z,37.10
2022-08-17T10:28:58.645Z,35.00
2022-08-17T10:31:34.795Z,34.08
2022-08-17T10:34:41.244Z,37.50
2022-08-17T10:37:25.129Z,33.95
2022-08-17T10:40:08.690Z,37.00
2022-08-17T10:42:44.493Z,35.00
2022-08-17T10:45:19.414Z,34.90
2022-08-17T10:48:05.673Z,36.13
2022-08-17T10:50:59.575Z,37.97
2022-08-17T10:53:56.536Z,37.58
2022-08-17T10:56:47.118Z,33.63
2022-08-17T10:59:51.574Z,36.33
2022-08-17T11:02:26.208Z,35.95
2022-08-17T11:05:15.563Z,38.88
2022-08-17T11:08:05.465Z,36.75
2022-08-17T11:11:08.349Z,33.92
2022-08-17T11:13:45.946Z,38.28
2022-08-17T11:16:38.297Z,36.17
2022-08-17T11:19:56.175Z,35.58
2022-08-17T11:22:58.064Z,33.58
2022-08-17T11:25:38.352Z,33.60
2022-08-17T11:28:10.461Z,34.90
2022-08-17T11:30:46.938Z,32.47
2022-08-17T11:33:53.893Z,33.72
2022-08-17T11:36:36.673Z,31.67
2022-08-17T11:39:18.039Z,33.85
2022-08-17T11:41:53.543Z,32.95
2022-08-17T11:44:37.820Z,32.35
2022-08-17T11:47:32.943Z,34.28
2022-08-17T11:50:55.216Z,30.38
2022-08-17T11:54:31.706Z,30.73
2022-08-17T11:57:00.955Z,29.10
2022-08-17T11:59:55.345Z,33.20
2022-08-17T12:02:43.345Z,31.35
2022-08-17T12:05:35.204Z,28.50
2022-08-17T12:08:17.790Z,29.17
2022-08-17T12:10:59.187Z,31.00
2022-08-17T12:13:38.444Z,31.52
2022-08-17T12:16:10.037Z,30.52
2022-08-17T12:18:41.967Z,34.65
2022-08-17T12:21:24.742Z,36.53
2022-08-17T12:24:00.193Z,33.85
2022-08-17T12:26:33.082Z,30.20
2022-08-17T12:29:05.233Z,32.33
2022-08-17T12:31:37.772Z,31.50
2022-08-17T12:34:06.617Z,31.38
2022-08-17T12:36:35.245Z,33.30
2022-08-17T12:39:14.598Z,34.42
2022-08-17T12:41:53.208Z,31.95
2022-08-17T12:44:24.825Z,33.35
2022-08-17T12:46:56.889Z,32.55
2022-08-17T12:49:29.630Z,34.42
2022-08-17T12:52:12.274Z,32.15
2022-08-17T12:54:59.755Z,33.22
2022-08-17T12:57:33.486Z,32.90
2022-08-17T13:00:10.803Z,33.75
2022-08-17T13:02:45.962Z,31.90
2022-08-17T13:05:22.672Z,31.60
2022-08-17T13:07:50.965Z,32.97
2022-08-17T13:10:22.960Z,34.28
2022-08-17T13:12:52.453Z,32.45
2022-08-17T13:15:32.150Z,36.60
2022-08-17T13:18:11.163Z,34.85
2022-08-17T13:20:39.297Z,35.35
2022-08-17T13:23:12.583Z,36.40
2022-08-17T13:25:40.917Z,34.08
2022-08-17T13:28:30.646Z,31.27
2022-08-17T13:31:33.010Z,35.70
2022-08-17T13:34:15.917Z,36.17
2022-08-17T13:36:47.928Z,34.72
2022-08-17T13:39:20.731Z,37.33
2022-08-17T13:41:50.158Z,33.80
2022-08-17T13:44:39.239Z,39.50
2022-08-17T13:47:19.523Z,41.40
2022-08-17T13:49:49.477Z,37.55
2022-08-17T13:52:38.150Z,40.47
2022-08-17T13:55:16.949Z,35.70
2022-08-17T13:57:47.723Z,40.25
2022-08-17T14:00:30.003Z,40.63
2022-08-17T14:03:00.975Z,38.50
2022-08-17T14:05:29.334Z,41.70
2022-08-17T14:08:00.394Z,40.55
2022-08-17T14:10:28.937Z,39.58
2022-08-17T14:12:57.831Z,42.90
2022-08-17T14:15:55.427Z,41.10
2022-08-17T14:18:18.066Z,40.72
2022-08-17T14:21:03.879Z,40.72
2022-08-17T14:23:32.904Z,43.55
2022-08-17T14:26:01.191Z,42.65
2022-08-17T14:28:29.546Z,37.30
2022-08-17T14:30:57.688Z,40.55
2022-08-17T14:33:27.571Z,40.25
2022-08-17T14:35:57.469Z,42.90
2022-08-17T14:38:25.887Z,40.42
2022-08-17T14:40:54.190Z,40.53
2022-08-17T14:43:22.394Z,37.60
2022-08-17T14:45:50.560Z,38.90
2022-08-17T14:48:18.670Z,39.33
2022-08-17T14:50:48.602Z,36.25
2022-08-17T14:53:17.262Z,36.63
2022-08-17T14:55:47.353Z,40.38
2022-08-17T14:58:16.847Z,41.50
2022-08-17T15:00:45.165Z,39.60
2022-08-17T15:03:14.559Z,37.10
2022-08-17T15:05:44.308Z,40.92
2022-08-17T15:08:14.746Z,39.00
2022-08-17T15:10:42.874Z,38.13
2022-08-17T15:13:18.507Z,39.33
2022-08-17T15:15:46.949Z,38.53
2022-08-17T15:18:15.421Z,40.58
2022-08-17T15:20:45.477Z,36.42
2022-08-17T15:23:16.406Z,41.22
2022-08-17T15:25:45.080Z,42.83
2022-08-17T15:28:13.381Z,45.45
2022-08-17T15:30:43.278Z,45.13
2022-08-17T15:33:14.682Z,43.63
2022-08-17T15:35:45.592Z,45.63
2022-08-17T15:38:15.215Z,41.75
2022-08-17T15:40:46.310Z,41.53
2022-08-17T15:43:16.885Z,42.30
2022-08-17T15:45:59.928Z,40.72
2022-08-17T15:48:41.161Z,36.88
2022-08-17T15:51:12.022Z,36.33
2022-08-17T15:53:42.907Z,39.22
2022-08-17T15:56:11.396Z,38.95
2022-08-17T15:58:41.943Z,41.03
2022-08-17T16:01:16.741Z,39.80
2022-08-17T16:04:04.213Z,41.67
2022-08-17T16:06:33.533Z,40.40
2022-08-17T16:09:03.279Z,43.65
2022-08-17T16:11:31.440Z,43.58
2022-08-17T16:13:59.621Z,44.58
2022-08-17T16:16:29.475Z,44.58
2022-08-17T16:18:58.872Z,42.58
2022-08-17T16:21:29.659Z,41.13
2022-08-17T16:24:03.805Z,41.50
2022-08-17T16:26:33.540Z,39.72
2022-08-17T16:29:03.202Z,39.90
2022-08-17T16:31:31.748Z,42.90
2022-08-17T16:34:17.767Z,41.45
2022-08-17T16:36:55.506Z,38.42
2022-08-17T16:39:27.346Z,41.30
2022-08-17T16:41:56.063Z,37.63
2022-08-17T16:44:25.784Z,41.42
2022-08-17T16:46:54.227Z,40.03
2022-08-17T16:49:35.116Z,40.83
2022-08-17T16:52:05.415Z,38.78
2022-08-17T16:54:35.401Z,40.33
2022-08-17T16:57:05.625Z,43.50
2022-08-17T16:59:41.840Z,40.55
2022-08-17T17:02:15.687Z,39.38
2022-08-17T17:04:52.814Z,40.50
2022-08-17T17:07:44.294Z,40.83
2022-08-17T17:10:16.486Z,39.42
2022-08-17T17:13:03.619Z,39.60
2022-08-17T17:15:44.901Z,43.03
2022-08-17T17:18:15.455Z,40.85
2022-08-17T17:20:49.476Z,39.33
2022-08-17T17:23:38.064Z,39.80
2022-08-17T17:26:38.861Z,42.30
2022-08-17T17:29:20.145Z,38.22
2022-08-17T17:31:56.103Z,41.10
2022-08-17T17:34:26.739Z,42.85
2022-08-17T17:36:59.229Z,43.05
2022-08-17T17:39:36.324Z,43.72
2022-08-17T17:42:07.697Z,45.50
2022-08-17T17:44:41.826Z,42.75
2022-08-17T17:47:11.149Z,46.30
2022-08-17T17:49:41.430Z,44.33
2022-08-17T17:52:19.423Z,41.30
2022-08-17T17:55:00.198Z,43.53
2022-08-17T17:57:39.338Z,45.55
2022-08-17T18:00:14.729Z,45.22
2022-08-17T18:03:03.169Z,48.53
2022-08-17T18:06:01.177Z,46.90
2022-08-17T18:08:48.973Z,44.70
2022-08-17T18:11:50.768Z,44.10
2022-08-17T18:14:38.768Z,46.42
2022-08-17T18:17:08.514Z,45.30
2022-08-17T18:19:39.985Z,43.65
2022-08-17T18:22:14.558Z,43.67
2022-08-17T18:24:46.026Z,42.53
2022-08-17T18:27:24.801Z,42.75
2022-08-17T18:29:54.522Z,45.72
2022-08-17T18:32:31.181Z,45.15
2022-08-17T18:35:02.650Z,42.67
2022-08-17T18:37:40.764Z,41.53
2022-08-17T18:40:41.855Z,45.72
2022-08-17T18:43:24.132Z,44.67
2022-08-17T18:45:54.573Z,43.97
2022-08-17T18:48:36.528Z,44.72
2022-08-17T18:51:39.850Z,42.95
2022-08-17T18:54:20.101Z,42.95
2022-08-17T18:56:54.320Z,45.83
2022-08-17T18:59:36.265Z,43.88
2022-08-17T19:02:33.668Z,43.42
2022-08-17T19:05:13.553Z,40.78
2022-08-17T19:07:43.520Z,46.15
2022-08-17T19:10:25.035Z,48.10
2022-08-17T19:13:00.327Z,42.75
2022-08-17T19:15:34.720Z,43.85
2022-08-17T19:18:14.711Z,44.35
2022-08-17T19:20:48.706Z,44.00
2022-08-17T19:23:23.797Z,47.88
2022-08-17T19:25:55.019Z,45.85
2022-08-17T19:28:28.731Z,48.38
2022-08-17T19:30:58.340Z,50.88
2022-08-17T19:33:27.451Z,48.92
2022-08-17T19:36:06.740Z,50.45
2022-08-17T19:38:45.804Z,48.83
2022-08-17T19:41:21.416Z,46.63
2022-08-17T19:44:09.805Z,46.63
2022-08-17T19:46:48.803Z,44.22
2022-08-17T19:49:41.495Z,46.33
2022-08-17T19:52:37.557Z,45.45
2022-08-17T19:55:11.617Z,43.08
2022-08-17T19:57:48.617Z,46.67
2022-08-17T20:00:19.087Z,50.35
2022-08-17T20:02:57.797Z,45.03
2022-08-17T20:05:30.089Z,45.08
2022-08-17T20:08:05.901Z,47.88
2022-08-17T20:10:45.254Z,46.60
2022-08-17T20:13:33.358Z,47.85
2022-08-17T20:16:02.739Z,45.17
2022-08-17T20:18:36.857Z,44.92
2022-08-17T20:21:20.047Z,45.78
2022-08-17T20:23:54.845Z,46.25
2022-08-17T20:26:27.326Z,43.95
2022-08-17T20:29:37.220Z,52.20
2022-08-17T20:32:27.268Z,47.10
2022-08-17T20:35:21.043Z,44.88
2022-08-17T20:37:56.193Z,45.15
2022-08-17T20:40:32.444Z,48.38
2022-08-17T20:43:21.028Z,49.55
2022-08-17T20:46:33.997Z,45.92
2022-08-17T20:49:22.386Z,47.00
2022-08-17T20:52:00.642Z,47.55
2022-08-17T20:54:43.171Z,47.42
2022-08-17T20:57:50.734Z,49.85
2022-08-17T21:00:42.689Z,50.47
2022-08-17T21:03:58.665Z,45.85
2022-08-17T21:06:26.995Z,44.33
2022-08-17T21:08:58.969Z,44.65
2022-08-17T21:11:56.882Z,46.38
2022-08-17T21:14:59.776Z,47.35
2022-08-17T21:17:44.729Z,46.78
2022-08-17T21:20:32.298Z,46.05
2022-08-17T21:23:30.169Z,47.05
2022-08-17T21:26:17.415Z,46.35
2022-08-17T21:29:01.945Z,44.13
2022-08-17T21:32:19.186Z,44.08
2022-08-17T21:35:24.985Z,45.38
2022-08-17T21:37:57.524Z,43.40
2022-08-17T21:40:29.126Z,45.92
2022-08-17T21:43:04.895Z,44.97
2022-08-17T21:45:38.072Z,51.25
2022-08-17T21:48:15.026Z,49.10
2022-08-17T21:50:45.997Z,50.28
2022-08-17T21:53:25.389Z,46.58
2022-08-17T21:55:55.429Z,47.78
2022-08-17T21:58:30.582Z,48.42
2022-08-17T22:01:18.445Z,48.70
2022-08-17T22:03:54.475Z,48.17
2022-08-17T22:06:26.256Z,46.38
2022-08-17T22:09:03.426Z,50.95
2022-08-17T22:11:31.920Z,48.92
2022-08-17T22:14:05.556Z,47.25
2022-08-17T22:16:34.906Z,47.97
2022-08-17T22:19:06.537Z,48.60
2022-08-17T22:21:34.917Z,46.30
2022-08-17T22:24:07.386Z,47.75
2022-08-17T22:27:07.630Z,51.97
2022-08-17T22:29:53.345Z,48.08
2022-08-17T22:32:36.110Z,50.10
2022-08-17T22:35:31.444Z,47.03
2022-08-17T22:38:27.550Z,47.55
2022-08-17T22:41:15.111Z,47.15
2022-08-17T22:43:44.678Z,44.50
2022-08-17T22:46:14.991Z,47.33
2022-08-17T22:48:50.274Z,47.17
2022-08-17T22:51:23.665Z,47.50
2022-08-17T22:54:12.944Z,49.55
2022-08-17T22:57:06.570Z,47.75
2022-08-17T22:59:44.231Z,45.30
2022-08-17T23:02:17.253Z,46.03
2022-08-17T23:04:48.708Z,44.20
2022-08-17T23:07:18.506Z,42.90
2022-08-17T23:09:46.864Z,46.33
2022-08-17T23:12:19.491Z,49.13
2022-08-17T23:14:51.268Z,46.53
2022-08-17T23:17:19.406Z,48.80
2022-08-17T23:19:47.819Z,49.10
2022-08-17T23:22:17.443Z,51.10
2022-08-17T23:24:48.933Z,49.28
2022-08-17T23:27:17.602Z,51.53
2022-08-17T23:29:47.132Z,48.83
2022-08-17T23:32:18.825Z,53.90
2022-08-17T23:34:48.177Z,51.47
2022-08-17T23:37:19.390Z,50.83
2022-08-17T23:39:47.648Z,51.85
2022-08-17T23:42:21.865Z,52.42
2022-08-17T23:44:50.598Z,54.97
2022-08-17T23:47:18.843Z,58.13
2022-08-17T23:49:47.013Z,57.72
2022-08-17T23:52:17.704Z,59.70
2022-08-17T23:54:48.254Z,50.72
2022-08-17T23:57:18.658Z,53.85
2022-08-17T23:59:47.363Z,53.65
